sensor_id;sensor_type;location;lat;lon;timestamp;pressure;altitude;pressure_sealevel;temperature;humidity
73594;BME280;64760;53.404;23.498;2023-12-20T00:01:05;98496.38;;;7.25;100.00
73594;BME280;64760;53.404;23.498;2023-12-20T00:03:42;98503.75;;;6.90;100.00
73594;BME280;64760;53.404;23.498;2023-12-20T00:06:09;98509.25;;;6.89;100.00
73594;BME280;64760;53.404;23.498;2023-12-20T00:08:36;98504.34;;;6.73;100.00
73594;BME280;64760;53.404;23.498;2023-12-20T00:11:02;98502.47;;;6.60;100.00
73594;BME280;64760;53.404;23.498;2023-12-20T00:13:29;98501.28;;;7.02;100.00
73594;BME280;64760;53.404;23.498;2023-12-20T00:15:55;98502.91;;;6.90;100.00
73594;BME280;64760;53.404;23.498;2023-12-20T00:18:21;98505.09;;;6.53;100.00
73594;BME280;64760;53.404;23.498;2023-12-20T00:20:48;98505.94;;;6.54;100.00
73594;BME280;64760;53.404;23.498;2023-12-20T00:23:14;98505.56;;;6.70;100.00
73594;BME280;64760;53.404;23.498;2023-12-20T00:25:41;98500.03;;;6.78;100.00
73594;BME280;64760;53.404;23.498;2023-12-20T00:28:07;98495.94;;;6.76;100.00
73594;BME280;64760;53.404;23.498;2023-12-20T00:30:33;98494.31;;;6.68;100.00
73594;BME280;64760;53.404;23.498;2023-12-20T00:32:59;98508.19;;;6.57;100.00
73594;BME280;64760;53.404;23.498;2023-12-20T00:35:26;98505.16;;;6.73;100.00
73594;BME280;64760;53.404;23.498;2023-12-20T00:37:52;98501.47;;;6.74;100.00
73594;BME280;64760;53.404;23.498;2023-12-20T00:40:19;98501.28;;;6.82;100.00
73594;BME280;64760;53.404;23.498;2023-12-20T00:42:46;98495.72;;;6.77;100.00
73594;BME280;64760;53.404;23.498;2023-12-20T00:45:13;98489.63;;;6.77;100.00
73594;BME280;64760;53.404;23.498;2023-12-20T00:47:40;98483.88;;;6.86;100.00
73594;BME280;64760;53.404;23.498;2023-12-20T00:50:08;98484.28;;;6.77;100.00
73594;BME280;64760;53.404;23.498;2023-12-20T00:52:35;98487.94;;;6.69;100.00
73594;BME280;64760;53.404;23.498;2023-12-20T00:55:01;98483.03;;;6.86;100.00
73594;BME280;64760;53.404;23.498;2023-12-20T00:57:27;98475.25;;;6.65;100.00
73594;BME280;64760;53.404;23.498;2023-12-20T00:59:54;98476.06;;;6.72;100.00
73594;BME280;64760;53.404;23.498;2023-12-20T01:02:20;98477.06;;;6.57;100.00
73594;BME280;64760;53.404;23.498;2023-12-20T01:04:47;98475.25;;;6.71;100.00
73594;BME280;64760;53.404;23.498;2023-12-20T01:07:13;98478.13;;;6.89;100.00
73594;BME280;64760;53.404;23.498;2023-12-20T01:09:39;98472.78;;;6.70;100.00
73594;BME280;64760;53.404;23.498;2023-12-20T01:12:06;98470.94;;;6.70;100.00
73594;BME280;64760;53.404;23.498;2023-12-20T01:14:33;98464.38;;;6.66;100.00
73594;BME280;64760;53.404;23.498;2023-12-20T01:16:59;98466.97;;;6.33;100.00
73594;BME280;64760;53.404;23.498;2023-12-20T01:19:26;98476.38;;;6.29;100.00
73594;BME280;64760;53.404;23.498;2023-12-20T01:21:53;98465.47;;;6.18;100.00
73594;BME280;64760;53.404;23.498;2023-12-20T01:24:20;98463.75;;;6.51;100.00
73594;BME280;64760;53.404;23.498;2023-12-20T01:26:46;98456.84;;;6.76;100.00
73594;BME280;64760;53.404;23.498;2023-12-20T01:29:13;98448.19;;;6.54;100.00
73594;BME280;64760;53.404;23.498;2023-12-20T01:31:40;98453.09;;;6.44;100.00
73594;BME280;64760;53.404;23.498;2023-12-20T01:34:06;98446.53;;;6.47;100.00
73594;BME280;64760;53.404;23.498;2023-12-20T01:36:33;98445.72;;;6.53;100.00
73594;BME280;64760;53.404;23.498;2023-12-20T01:39:06;98436.69;;;6.28;100.00
73594;BME280;64760;53.404;23.498;2023-12-20T01:41:32;98435.88;;;6.47;100.00
73594;BME280;64760;53.404;23.498;2023-12-20T01:43:59;98438.56;;;6.67;100.00
73594;BME280;64760;53.404;23.498;2023-12-20T01:46:26;98442.25;;;6.59;100.00
73594;BME280;64760;53.404;23.498;2023-12-20T01:49:02;98434.25;;;6.33;100.00
73594;BME280;64760;53.404;23.498;2023-12-20T01:51:28;98438.78;;;6.72;100.00
73594;BME280;64760;53.404;23.498;2023-12-20T01:53:59;98433.44;;;6.52;100.00
73594;BME280;64760;53.404;23.498;2023-12-20T01:56:26;98425.81;;;6.23;100.00
73594;BME280;64760;53.404;23.498;2023-12-20T01:58:55;98423.63;;;6.52;100.00
73594;BME280;64760;53.404;23.498;2023-12-20T02:01:22;98425.50;;;6.91;100.00
73594;BME280;64760;53.404;23.498;2023-12-20T02:07:39;98428.50;;;6.49;100.00
73594;BME280;64760;53.404;23.498;2023-12-20T02:10:06;98427.06;;;6.53;100.00
73594;BME280;64760;53.404;23.498;2023-12-20T02:12:33;98421.56;;;6.61;100.00
73594;BME280;64760;53.404;23.498;2023-12-20T02:14:59;98422.31;;;6.09;100.00
73594;BME280;64760;53.404;23.498;2023-12-20T02:17:26;98418.69;;;6.69;100.00
73594;BME280;64760;53.404;23.498;2023-12-20T02:19:53;98418.28;;;6.33;100.00
73594;BME280;64760;53.404;23.498;2023-12-20T02:22:19;98414.56;;;6.34;100.00
73594;BME280;64760;53.404;23.498;2023-12-20T02:24:46;98405.38;;;6.43;100.00
73594;BME280;64760;53.404;23.498;2023-12-20T02:27:12;98401.09;;;6.61;100.00
73594;BME280;64760;53.404;23.498;2023-12-20T02:29:39;98404.38;;;6.44;100.00
73594;BME280;64760;53.404;23.498;2023-12-20T02:32:05;98405.59;;;6.61;100.00
73594;BME280;64760;53.404;23.498;2023-12-20T02:34:32;98404.97;;;6.33;100.00
73594;BME280;64760;53.404;23.498;2023-12-20T02:36:58;98403.75;;;6.48;100.00
73594;BME280;64760;53.404;23.498;2023-12-20T02:39:25;98400.44;;;6.27;100.00
73594;BME280;64760;53.404;23.498;2023-12-20T02:41:51;98399.25;;;6.62;100.00
73594;BME280;64760;53.404;23.498;2023-12-20T02:44:17;98394.16;;;6.60;100.00
73594;BME280;64760;53.404;23.498;2023-12-20T02:46:44;98397.81;;;6.79;100.00
73594;BME280;64760;53.404;23.498;2023-12-20T02:49:11;98387.38;;;6.65;100.00
73594;BME280;64760;53.404;23.498;2023-12-20T02:51:37;98385.72;;;6.57;100.00
73594;BME280;64760;53.404;23.498;2023-12-20T02:54:06;98377.72;;;6.31;100.00
73594;BME280;64760;53.404;23.498;2023-12-20T02:56:33;98379.16;;;6.27;100.00
73594;BME280;64760;53.404;23.498;2023-12-20T02:59:00;98375.69;;;6.59;100.00
73594;BME280;64760;53.404;23.498;2023-12-20T03:01:26;98376.94;;;6.56;100.00
73594;BME280;64760;53.404;23.498;2023-12-20T03:03:56;98379.78;;;6.35;100.00
73594;BME280;64760;53.404;23.498;2023-12-20T03:06:22;98370.09;;;6.01;100.00
73594;BME280;64760;53.404;23.498;2023-12-20T03:08:49;98366.09;;;6.45;100.00
73594;BME280;64760;53.404;23.498;2023-12-20T03:11:15;98362.97;;;6.22;100.00
73594;BME280;64760;53.404;23.498;2023-12-20T03:13:42;98363.56;;;6.17;100.00
73594;BME280;64760;53.404;23.498;2023-12-20T03:16:12;98359.47;;;6.21;100.00
73594;BME280;64760;53.404;23.498;2023-12-20T03:18:39;98355.22;;;6.46;100.00
73594;BME280;64760;53.404;23.498;2023-12-20T03:21:05;98348.66;;;6.23;100.00
73594;BME280;64760;53.404;23.498;2023-12-20T03:23:32;98358.25;;;6.04;100.00
73594;BME280;64760;53.404;23.498;2023-12-20T03:25:59;98359.50;;;6.28;100.00
73594;BME280;64760;53.404;23.498;2023-12-20T03:28:27;98354.41;;;6.33;100.00
73594;BME280;64760;53.404;23.498;2023-12-20T03:30:53;98349.47;;;6.30;100.00
73594;BME280;64760;53.404;23.498;2023-12-20T03:33:20;98351.09;;;6.11;100.00
73594;BME280;64760;53.404;23.498;2023-12-20T03:35:46;98347.84;;;6.29;100.00
73594;BME280;64760;53.404;23.498;2023-12-20T03:38:13;98348.88;;;6.28;100.00
73594;BME280;64760;53.404;23.498;2023-12-20T03:40:39;98337.41;;;6.27;100.00
73594;BME280;64760;53.404;23.498;2023-12-20T03:43:05;98360.69;;;6.05;100.00
73594;BME280;64760;53.404;23.498;2023-12-20T03:45:32;98348.66;;;6.29;100.00
73594;BME280;64760;53.404;23.498;2023-12-20T03:47:58;98356.66;;;6.36;100.00
73594;BME280;64760;53.404;23.498;2023-12-20T03:50:26;98351.50;;;6.21;100.00
73594;BME280;64760;53.404;23.498;2023-12-20T03:52:53;98353.75;;;6.18;100.00
73594;BME280;64760;53.404;23.498;2023-12-20T03:55:19;98346.22;;;6.41;100.00
73594;BME280;64760;53.404;23.498;2023-12-20T03:57:46;98352.16;;;6.63;100.00
73594;BME280;64760;53.404;23.498;2023-12-20T04:00:12;98350.72;;;6.40;100.00
73594;BME280;64760;53.404;23.498;2023-12-20T04:02:39;98355.63;;;6.63;100.00
73594;BME280;64760;53.404;23.498;2023-12-20T04:05:06;98359.31;;;6.36;100.00
73594;BME280;64760;53.404;23.498;2023-12-20T04:07:34;98364.22;;;6.32;100.00
73594;BME280;64760;53.404;23.498;2023-12-20T04:10:00;98364.22;;;6.39;100.00
73594;BME280;64760;53.404;23.498;2023-12-20T04:12:30;98357.66;;;6.35;100.00
73594;BME280;64760;53.404;23.498;2023-12-20T04:14:57;98364.22;;;6.65;100.00
73594;BME280;64760;53.404;23.498;2023-12-20T04:17:23;98364.63;;;6.62;100.00
73594;BME280;64760;53.404;23.498;2023-12-20T04:19:50;98365.03;;;6.26;100.00
73594;BME280;64760;53.404;23.498;2023-12-20T04:22:20;98361.75;;;6.57;100.00
73594;BME280;64760;53.404;23.498;2023-12-20T04:24:46;98363.84;;;6.48;100.00
73594;BME280;64760;53.404;23.498;2023-12-20T04:27:13;98355.84;;;6.68;100.00
73594;BME280;64760;53.404;23.498;2023-12-20T04:29:39;98349.09;;;6.52;100.00
73594;BME280;64760;53.404;23.498;2023-12-20T04:32:06;98358.91;;;6.39;100.00
73594;BME280;64760;53.404;23.498;2023-12-20T04:34:32;98365.66;;;6.61;100.00
73594;BME280;64760;53.404;23.498;2023-12-20T04:36:58;98367.94;;;6.64;100.00
73594;BME280;64760;53.404;23.498;2023-12-20T04:39:26;98357.06;;;6.52;100.00
73594;BME280;64760;53.404;23.498;2023-12-20T04:41:52;98355.63;;;6.76;100.00
73594;BME280;64760;53.404;23.498;2023-12-20T04:44:18;98347.47;;;6.45;100.00
73594;BME280;64760;53.404;23.498;2023-12-20T04:46:45;98351.34;;;6.36;100.00
73594;BME280;64760;53.404;23.498;2023-12-20T04:49:11;98351.13;;;6.57;100.00
73594;BME280;64760;53.404;23.498;2023-12-20T04:51:37;98347.84;;;6.55;100.00
73594;BME280;64760;53.404;23.498;2023-12-20T04:57:59;98356.66;;;6.88;100.00
73594;BME280;64760;53.404;23.498;2023-12-20T05:00:25;98352.97;;;6.37;100.00
73594;BME280;64760;53.404;23.498;2023-12-20T05:02:51;98346.84;;;6.56;100.00
73594;BME280;64760;53.404;23.498;2023-12-20T05:05:18;98353.78;;;6.57;100.00
73594;BME280;64760;53.404;23.498;2023-12-20T05:07:44;98349.47;;;6.95;100.00
73594;BME280;64760;53.404;23.498;2023-12-20T05:10:11;98352.34;;;6.81;100.00
73594;BME280;64760;53.404;23.498;2023-12-20T05:12:37;98347.44;;;6.78;100.00
73594;BME280;64760;53.404;23.498;2023-12-20T05:15:06;98355.00;;;6.61;100.00
73594;BME280;64760;53.404;23.498;2023-12-20T05:17:32;98352.16;;;6.43;100.00
73594;BME280;64760;53.404;23.498;2023-12-20T05:19:59;98346.22;;;6.80;100.00
73594;BME280;64760;53.404;23.498;2023-12-20T05:22:25;98352.38;;;6.48;100.00
73594;BME280;64760;53.404;23.498;2023-12-20T05:24:51;98351.94;;;6.77;100.00
73594;BME280;64760;53.404;23.498;2023-12-20T05:27:18;98348.84;;;6.87;100.00
73594;BME280;64760;53.404;23.498;2023-12-20T05:29:44;98338.38;;;6.98;100.00
73594;BME280;64760;53.404;23.498;2023-12-20T05:32:10;98343.97;;;6.64;100.00
73594;BME280;64760;53.404;23.498;2023-12-20T05:34:37;98346.81;;;6.82;100.00
73594;BME280;64760;53.404;23.498;2023-12-20T05:37:03;98344.34;;;6.87;100.00
73594;BME280;64760;53.404;23.498;2023-12-20T05:39:30;98352.53;;;6.86;100.00
73594;BME280;64760;53.404;23.498;2023-12-20T05:41:56;98348.25;;;6.65;100.00
73594;BME280;64760;53.404;23.498;2023-12-20T05:44:23;98339.22;;;6.99;100.00
73594;BME280;64760;53.404;23.498;2023-12-20T05:46:49;98350.72;;;6.67;100.00
73594;BME280;64760;53.404;23.498;2023-12-20T05:49:16;98349.66;;;7.07;100.00
73594;BME280;64760;53.404;23.498;2023-12-20T05:51:42;98342.91;;;7.04;100.00
73594;BME280;64760;53.404;23.498;2023-12-20T05:54:09;98346.59;;;7.03;100.00
73594;BME280;64760;53.404;23.498;2023-12-20T05:56:35;98348.47;;;6.50;100.00
73594;BME280;64760;53.404;23.498;2023-12-20T05:59:02;98346.63;;;6.57;100.00
73594;BME280;64760;53.404;23.498;2023-12-20T06:01:28;98363.22;;;6.59;100.00
73594;BME280;64760;53.404;23.498;2023-12-20T06:03:54;98348.22;;;6.85;100.00
73594;BME280;64760;53.404;23.498;2023-12-20T06:06:21;98351.72;;;6.85;100.00
73594;BME280;64760;53.404;23.498;2023-12-20T06:08:47;98354.41;;;6.79;100.00
73594;BME280;64760;53.404;23.498;2023-12-20T06:11:13;98355.00;;;7.00;100.00
73594;BME280;64760;53.404;23.498;2023-12-20T06:13:41;98348.66;;;6.82;100.00
73594;BME280;64760;53.404;23.498;2023-12-20T06:16:07;98348.88;;;6.54;100.00
73594;BME280;64760;53.404;23.498;2023-12-20T06:18:33;98342.31;;;6.50;100.00
73594;BME280;64760;53.404;23.498;2023-12-20T06:21:00;98339.66;;;6.83;100.00
73594;BME280;64760;53.404;23.498;2023-12-20T06:23:26;98342.13;;;6.84;100.00
73594;BME280;64760;53.404;23.498;2023-12-20T06:25:54;98337.19;;;6.81;100.00
73594;BME280;64760;53.404;23.498;2023-12-20T06:28:20;98345.38;;;6.73;100.00
73594;BME280;64760;53.404;23.498;2023-12-20T06:30:46;98340.25;;;6.65;100.00
73594;BME280;64760;53.404;23.498;2023-12-20T06:33:15;98345.00;;;6.56;100.00
73594;BME280;64760;53.404;23.498;2023-12-20T06:35:41;98341.47;;;6.82;100.00
73594;BME280;64760;53.404;23.498;2023-12-20T06:38:08;98344.16;;;6.82;100.00
73594;BME280;64760;53.404;23.498;2023-12-20T06:40:35;98340.25;;;6.78;100.00
73594;BME280;64760;53.404;23.498;2023-12-20T06:43:01;98348.25;;;6.91;100.00
73594;BME280;64760;53.404;23.498;2023-12-20T06:45:28;98336.31;;;7.14;100.00
73594;BME280;64760;53.404;23.498;2023-12-20T06:47:54;98345.56;;;7.04;100.00
73594;BME280;64760;53.404;23.498;2023-12-20T06:50:20;98343.88;;;7.23;100.00
73594;BME280;64760;53.404;23.498;2023-12-20T06:52:47;98342.66;;;7.13;100.00
73594;BME280;64760;53.404;23.498;2023-12-20T06:55:14;98332.41;;;7.23;100.00
73594;BME280;64760;53.404;23.498;2023-12-20T06:57:47;98339.00;;;7.07;100.00
73594;BME280;64760;53.404;23.498;2023-12-20T07:00:18;98344.69;;;7.17;100.00
73594;BME280;64760;53.404;23.498;2023-12-20T07:02:46;98352.06;;;7.22;100.00
73594;BME280;64760;53.404;23.498;2023-12-20T07:05:16;98356.25;;;6.78;100.00
73594;BME280;64760;53.404;23.498;2023-12-20T07:07:43;98354.56;;;7.10;100.00
73594;BME280;64760;53.404;23.498;2023-12-20T07:10:09;98351.94;;;6.90;100.00
73594;BME280;64760;53.404;23.498;2023-12-20T07:12:36;98358.44;;;7.14;100.00
73594;BME280;64760;53.404;23.498;2023-12-20T07:15:02;98355.59;;;6.89;100.00
73594;BME280;64760;53.404;23.498;2023-12-20T07:17:32;98358.03;;;7.24;100.00
73594;BME280;64760;53.404;23.498;2023-12-20T07:20:00;98361.13;;;6.94;100.00
73594;BME280;64760;53.404;23.498;2023-12-20T07:22:30;98351.13;;;6.96;100.00
73594;BME280;64760;53.404;23.498;2023-12-20T07:25:00;98353.56;;;6.85;100.00
73594;BME280;64760;53.404;23.498;2023-12-20T07:27:27;98353.16;;;6.81;100.00
73594;BME280;64760;53.404;23.498;2023-12-20T07:29:53;98350.44;;;7.27;100.00
73594;BME280;64760;53.404;23.498;2023-12-20T07:32:20;98355.97;;;7.13;100.00
73594;BME280;64760;53.404;23.498;2023-12-20T07:34:46;98361.63;;;7.55;100.00
73594;BME280;64760;53.404;23.498;2023-12-20T07:37:12;98368.16;;;7.53;100.00
73594;BME280;64760;53.404;23.498;2023-12-20T07:39:41;98356.75;;;7.33;100.00
73594;BME280;64760;53.404;23.498;2023-12-20T07:42:08;98354.88;;;7.46;100.00
73594;BME280;64760;53.404;23.498;2023-12-20T07:51:09;98356.69;;;7.52;100.00
73594;BME280;64760;53.404;23.498;2023-12-20T07:53:36;98360.00;;;7.48;100.00
73594;BME280;64760;53.404;23.498;2023-12-20T07:56:19;98359.19;;;7.41;100.00
73594;BME280;64760;53.404;23.498;2023-12-20T07:58:46;98373.75;;;7.38;100.00
73594;BME280;64760;53.404;23.498;2023-12-20T08:01:15;98378.53;;;7.10;100.00
73594;BME280;64760;53.404;23.498;2023-12-20T08:03:41;98370.69;;;7.35;100.00
73594;BME280;64760;53.404;23.498;2023-12-20T08:06:08;98370.91;;;7.33;100.00
73594;BME280;64760;53.404;23.498;2023-12-20T08:08:34;98372.19;;;6.98;100.00
73594;BME280;64760;53.404;23.498;2023-12-20T08:11:00;98368.88;;;7.22;100.00
73594;BME280;64760;53.404;23.498;2023-12-20T08:13:28;98367.63;;;7.25;100.00
73594;BME280;64760;53.404;23.498;2023-12-20T08:15:55;98373.34;;;7.48;100.00
73594;BME280;64760;53.404;23.498;2023-12-20T08:18:22;98364.09;;;7.50;100.00
73594;BME280;64760;53.404;23.498;2023-12-20T08:20:49;98368.38;;;7.58;100.00
73594;BME280;64760;53.404;23.498;2023-12-20T08:23:16;98369.22;;;7.52;100.00
73594;BME280;64760;53.404;23.498;2023-12-20T08:25:42;98371.38;;;7.75;100.00
73594;BME280;64760;53.404;23.498;2023-12-20T08:28:09;98361.53;;;7.69;100.00
73594;BME280;64760;53.404;23.498;2023-12-20T08:30:35;98356.56;;;7.28;100.00
73594;BME280;64760;53.404;23.498;2023-12-20T08:33:01;98366.56;;;7.45;100.00
73594;BME280;64760;53.404;23.498;2023-12-20T08:35:28;98361.16;;;7.65;100.00
73594;BME280;64760;53.404;23.498;2023-12-20T08:37:54;98364.28;;;7.55;100.00
73594;BME280;64760;53.404;23.498;2023-12-20T08:40:22;98355.50;;;7.42;100.00
73594;BME280;64760;53.404;23.498;2023-12-20T08:42:49;98367.78;;;7.56;100.00
73594;BME280;64760;53.404;23.498;2023-12-20T08:45:15;98370.84;;;7.53;100.00
73594;BME280;64760;53.404;23.498;2023-12-20T08:47:42;98368.47;;;7.19;100.00
73594;BME280;64760;53.404;23.498;2023-12-20T08:50:11;98370.53;;;7.23;100.00
73594;BME280;64760;53.404;23.498;2023-12-20T08:52:37;98362.50;;;7.87;100.00
73594;BME280;64760;53.404;23.498;2023-12-20T08:55:04;98358.22;;;7.80;100.00
73594;BME280;64760;53.404;23.498;2023-12-20T08:57:31;98345.69;;;7.29;100.00
73594;BME280;64760;53.404;23.498;2023-12-20T08:59:58;98355.22;;;7.63;100.00
73594;BME280;64760;53.404;23.498;2023-12-20T09:02:24;98351.72;;;6.92;100.00
73594;BME280;64760;53.404;23.498;2023-12-20T09:04:51;98350.16;;;7.42;100.00
73594;BME280;64760;53.404;23.498;2023-12-20T09:07:22;98349.19;;;7.36;100.00
73594;BME280;64760;53.404;23.498;2023-12-20T09:09:48;98344.13;;;6.95;100.00
73594;BME280;64760;53.404;23.498;2023-12-20T09:12:15;98342.66;;;7.19;100.00
73594;BME280;64760;53.404;23.498;2023-12-20T09:14:41;98339.38;;;7.17;100.00
73594;BME280;64760;53.404;23.498;2023-12-20T09:17:07;98333.38;;;7.35;100.00
73594;BME280;64760;53.404;23.498;2023-12-20T09:19:34;98330.75;;;7.28;100.00
73594;BME280;64760;53.404;23.498;2023-12-20T09:22:01;98330.53;;;7.30;100.00
73594;BME280;64760;53.404;23.498;2023-12-20T09:24:28;98317.94;;;6.92;100.00
73594;BME280;64760;53.404;23.498;2023-12-20T09:26:54;98327.28;;;7.15;100.00
73594;BME280;64760;53.404;23.498;2023-12-20T09:29:20;98306.63;;;7.03;100.00
73594;BME280;64760;53.404;23.498;2023-12-20T09:31:47;98309.50;;;7.08;100.00
73594;BME280;64760;53.404;23.498;2023-12-20T09:34:15;98319.97;;;6.77;100.00
73594;BME280;64760;53.404;23.498;2023-12-20T09:36:42;98310.53;;;6.94;100.00
73594;BME280;64760;53.404;23.498;2023-12-20T09:39:13;98308.91;;;7.00;100.00
73594;BME280;64760;53.404;23.498;2023-12-20T09:41:43;98310.09;;;7.04;100.00
73594;BME280;64760;53.404;23.498;2023-12-20T09:44:15;98314.16;;;7.13;100.00
73594;BME280;64760;53.404;23.498;2023-12-20T09:46:45;98304.25;;;7.33;98.86
73594;BME280;64760;53.404;23.498;2023-12-20T09:49:13;98302.91;;;7.11;100.00
73594;BME280;64760;53.404;23.498;2023-12-20T09:51:40;98294.53;;;6.94;100.00
73594;BME280;64760;53.404;23.498;2023-12-20T09:54:07;98286.63;;;7.39;97.94
73594;BME280;64760;53.404;23.498;2023-12-20T09:56:34;98294.75;;;6.99;99.95
73594;BME280;64760;53.404;23.498;2023-12-20T09:59:00;98294.53;;;6.94;100.00
73594;BME280;64760;53.404;23.498;2023-12-20T10:01:30;98298.25;;;7.51;96.38
73594;BME280;64760;53.404;23.498;2023-12-20T10:03:58;98301.81;;;7.32;97.70
73594;BME280;64760;53.404;23.498;2023-12-20T10:06:26;98303.44;;;7.33;100.00
73594;BME280;64760;53.404;23.498;2023-12-20T10:08:53;98300.91;;;7.51;99.53
73594;BME280;64760;53.404;23.498;2023-12-20T10:11:19;98295.53;;;7.64;98.42
73594;BME280;64760;53.404;23.498;2023-12-20T10:13:51;98298.50;;;7.43;98.36
73594;BME280;64760;53.404;23.498;2023-12-20T10:16:17;98295.03;;;7.36;97.31
73594;BME280;64760;53.404;23.498;2023-12-20T10:18:45;98298.19;;;7.13;100.00
73594;BME280;64760;53.404;23.498;2023-12-20T10:21:11;98300.53;;;7.47;98.58
73594;BME280;64760;53.404;23.498;2023-12-20T10:23:37;98296.31;;;7.71;97.15
73594;BME280;64760;53.404;23.498;2023-12-20T10:26:06;98292.81;;;7.71;97.24
73594;BME280;64760;53.404;23.498;2023-12-20T10:28:35;98292.63;;;7.72;96.86
73594;BME280;64760;53.404;23.498;2023-12-20T10:31:02;98281.00;;;7.60;94.46
73594;BME280;64760;53.404;23.498;2023-12-20T10:33:29;98286.81;;;7.37;95.90
73594;BME280;64760;53.404;23.498;2023-12-20T10:42:51;98274.75;;;7.35;100.00
73594;BME280;64760;53.404;23.498;2023-12-20T10:45:22;98276.59;;;7.34;98.69
73594;BME280;64760;53.404;23.498;2023-12-20T10:47:50;98284.50;;;7.54;96.48
73594;BME280;64760;53.404;23.498;2023-12-20T10:50:18;98277.34;;;7.48;95.76
73594;BME280;64760;53.404;23.498;2023-12-20T10:52:46;98273.41;;;7.57;95.09
73594;BME280;64760;53.404;23.498;2023-12-20T10:55:13;98278.97;;;7.55;95.56
73594;BME280;64760;53.404;23.498;2023-12-20T10:57:41;98280.94;;;7.67;95.05
73594;BME280;64760;53.404;23.498;2023-12-20T11:00:11;98270.13;;;7.55;97.43
73594;BME280;64760;53.404;23.498;2023-12-20T11:02:41;98267.00;;;7.65;94.89
73594;BME280;64760;53.404;23.498;2023-12-20T11:05:22;98257.59;;;7.62;93.99
73594;BME280;64760;53.404;23.498;2023-12-20T11:08:07;98249.31;;;7.39;98.84
73594;BME280;64760;53.404;23.498;2023-12-20T11:10:50;98253.84;;;7.32;97.30
73594;BME280;64760;53.404;23.498;2023-12-20T11:13:23;98249.50;;;7.44;97.27
73594;BME280;64760;53.404;23.498;2023-12-20T11:15:53;98237.16;;;6.98;100.00
73594;BME280;64760;53.404;23.498;2023-12-20T11:18:31;98248.00;;;7.03;100.00
73594;BME280;64760;53.404;23.498;2023-12-20T11:21:01;98235.97;;;7.39;97.97
73594;BME280;64760;53.404;23.498;2023-12-20T11:23:30;98237.84;;;7.32;98.38
73594;BME280;64760;53.404;23.498;2023-12-20T11:25:59;98232.78;;;7.24;100.00
73594;BME280;64760;53.404;23.498;2023-12-20T11:28:26;98231.41;;;7.01;100.00
73594;BME280;64760;53.404;23.498;2023-12-20T11:30:55;98230.97;;;7.55;99.69
73594;BME280;64760;53.404;23.498;2023-12-20T11:33:27;98221.53;;;7.15;100.00
73594;BME280;64760;53.404;23.498;2023-12-20T11:35:56;98221.13;;;7.12;100.00
73594;BME280;64760;53.404;23.498;2023-12-20T11:38:23;98220.56;;;7.41;100.00
73594;BME280;64760;53.404;23.498;2023-12-20T11:40:51;98214.22;;;7.42;99.80
73594;BME280;64760;53.404;23.498;2023-12-20T11:43:37;98216.28;;;6.89;100.00
73594;BME280;64760;53.404;23.498;2023-12-20T11:46:08;98215.09;;;7.29;100.00
73594;BME280;64760;53.404;23.498;2023-12-20T11:48:39;98203.34;;;7.43;100.00
73594;BME280;64760;53.404;23.498;2023-12-20T11:51:13;98200.19;;;7.53;98.41
73594;BME280;64760;53.404;23.498;2023-12-20T11:53:41;98195.63;;;7.91;96.07
73594;BME280;64760;53.404;23.498;2023-12-20T11:56:08;98195.22;;;7.32;99.10
73594;BME280;64760;53.404;23.498;2023-12-20T11:58:36;98187.84;;;7.27;100.00
73594;BME280;64760;53.404;23.498;2023-12-20T12:01:07;98199.13;;;7.61;97.02
73594;BME280;64760;53.404;23.498;2023-12-20T12:03:39;98194.78;;;6.90;100.00
73594;BME280;64760;53.404;23.498;2023-12-20T12:06:10;98187.19;;;6.94;100.00
73594;BME280;64760;53.404;23.498;2023-12-20T12:08:39;98192.22;;;6.64;100.00
73594;BME280;64760;53.404;23.498;2023-12-20T12:11:11;98185.69;;;7.11;100.00
73594;BME280;64760;53.404;23.498;2023-12-20T12:13:42;98182.75;;;7.57;100.00
73594;BME280;64760;53.404;23.498;2023-12-20T12:16:16;98185.28;;;7.07;100.00
73594;BME280;64760;53.404;23.498;2023-12-20T12:18:57;98183.44;;;7.08;100.00
73594;BME280;64760;53.404;23.498;2023-12-20T12:21:24;98185.44;;;7.19;100.00
73594;BME280;64760;53.404;23.498;2023-12-20T12:23:53;98178.22;;;6.88;100.00
73594;BME280;64760;53.404;23.498;2023-12-20T12:26:25;98177.31;;;7.07;100.00
73594;BME280;64760;53.404;23.498;2023-12-20T12:28:55;98169.72;;;6.47;100.00
73594;BME280;64760;53.404;23.498;2023-12-20T12:31:24;98171.19;;;7.00;100.00
73594;BME280;64760;53.404;23.498;2023-12-20T12:33:58;98168.50;;;7.07;100.00
73594;BME280;64760;53.404;23.498;2023-12-20T12:36:30;98158.03;;;7.05;100.00
73594;BME280;64760;53.404;23.498;2023-12-20T12:39:05;98160.66;;;6.68;100.00
73594;BME280;64760;53.404;23.498;2023-12-20T12:41:39;98159.88;;;6.60;100.00
73594;BME280;64760;53.404;23.498;2023-12-20T12:44:06;98160.72;;;6.41;100.00
73594;BME280;64760;53.404;23.498;2023-12-20T12:46:32;98156.53;;;6.78;100.00
73594;BME280;64760;53.404;23.498;2023-12-20T12:48:59;98153.31;;;6.63;100.00
73594;BME280;64760;53.404;23.498;2023-12-20T12:51:25;98149.16;;;6.80;100.00
73594;BME280;64760;53.404;23.498;2023-12-20T12:53:53;98138.59;;;6.54;100.00
73594;BME280;64760;53.404;23.498;2023-12-20T12:56:19;98149.16;;;6.80;100.00
73594;BME280;64760;53.404;23.498;2023-12-20T12:58:46;98138.91;;;6.77;100.00
73594;BME280;64760;53.404;23.498;2023-12-20T13:01:12;98138.94;;;6.71;100.00
73594;BME280;64760;53.404;23.498;2023-12-20T13:03:39;98144.19;;;6.33;100.00
73594;BME280;64760;53.404;23.498;2023-12-20T13:06:05;98141.91;;;6.43;100.00
73594;BME280;64760;53.404;23.498;2023-12-20T13:08:35;98147.66;;;6.27;100.00
73594;BME280;64760;53.404;23.498;2023-12-20T13:11:01;98131.63;;;6.53;100.00
73594;BME280;64760;53.404;23.498;2023-12-20T13:13:34;98130.16;;;6.57;100.00